createdAt,value
2018-06-01T00:00:11.175Z,82.00
2018-06-01T00:01:16.065Z,82.40
2018-06-01T00:02:20.164Z,82.40
2018-06-01T00:03:24.264Z,82.20
2018-06-01T00:04:28.374Z,82.70
2018-06-01T00:05:32.774Z,82.70
2018-06-01T00:06:36.980Z,82.70
2018-06-01T00:07:41.068Z,82.70
2018-06-01T00:08:45.378Z,82.60
2018-06-01T00:09:49.725Z,82.50
2018-06-01T00:10:54.838Z,82.30
2018-06-01T00:11:59.136Z,82.30
2018-06-01T00:13:03.491Z,82.00
2018-06-01T00:14:07.823Z,81.60
2018-06-01T00:15:12.094Z,81.70
2018-06-01T00:16:16.386Z,81.70
2018-06-01T00:17:21.485Z,81.70
2018-06-01T00:18:25.597Z,81.70
2018-06-01T00:19:29.638Z,81.60
2018-06-01T00:20:33.735Z,81.40
2018-06-01T00:21:37.868Z,81.50
2018-06-01T00:22:41.927Z,81.30
2018-06-01T00:23:46.047Z,81.30
2018-06-01T00:24:50.446Z,81.30
2018-06-01T00:25:55.290Z,81.40
2018-06-01T00:26:59.375Z,81.40
2018-06-01T00:28:03.463Z,81.50
2018-06-01T00:29:08.282Z,81.10
2018-06-01T00:30:13.387Z,81.10
2018-06-01T00:31:17.500Z,81.00
2018-06-01T00:32:22.342Z,81.00
2018-06-01T00:33:26.413Z,81.00
2018-06-01T00:34:30.500Z,81.00
2018-06-01T00:35:34.594Z,81.00
2018-06-01T00:36:38.702Z,81.20
2018-06-01T00:37:42.783Z,81.20
2018-06-01T00:38:46.864Z,81.40
2018-06-01T00:39:51.694Z,81.70
2018-06-01T00:40:55.791Z,81.70
2018-06-01T00:42:00.031Z,81.70
2018-06-01T00:43:05.246Z,82.50
2018-06-01T00:44:09.376Z,82.50
2018-06-01T00:45:13.419Z,82.60
2018-06-01T00:46:17.519Z,82.80
2018-06-01T00:47:21.571Z,82.80
2018-06-01T00:48:25.623Z,82.90
2018-06-01T00:49:30.038Z,83.00
2018-06-01T00:50:34.213Z,83.40
2018-06-01T00:51:38.475Z,83.50
2018-06-01T00:52:42.777Z,83.60
2018-06-01T00:53:47.148Z,83.50
2018-06-01T00:55:01.294Z,83.20
2018-06-01T00:56:05.645Z,83.20
2018-06-01T00:57:09.967Z,83.20
2018-06-01T00:58:14.254Z,83.20
2018-06-01T00:59:18.545Z,83.20
2018-06-01T01:00:22.930Z,83.10
2018-06-01T01:01:26.978Z,83.10
2018-06-01T01:02:31.108Z,83.10
2018-06-01T01:03:35.180Z,83.80
2018-06-01T01:04:39.590Z,83.30
2018-06-01T01:05:43.882Z,83.50
2018-06-01T01:06:48.178Z,83.40
2018-06-01T01:07:52.476Z,83.30
2018-06-01T01:08:56.785Z,83.40
2018-06-01T01:10:01.099Z,83.50
2018-06-01T01:11:05.397Z,83.50
2018-06-01T01:12:09.697Z,83.60
2018-06-01T01:13:14.033Z,83.60
2018-06-01T01:14:18.451Z,83.70
2018-06-01T01:15:22.754Z,83.70
2018-06-01T01:16:27.175Z,83.70
2018-06-01T01:17:31.511Z,83.50
2018-06-01T01:18:35.818Z,83.60
2018-06-01T01:19:40.162Z,83.70
2018-06-01T01:20:44.462Z,83.20
2018-06-01T01:21:49.303Z,83.70
2018-06-01T01:22:53.633Z,84.40
2018-06-01T01:23:58.324Z,83.00
2018-06-01T01:25:02.918Z,83.80
2018-06-01T01:26:08.094Z,83.80
2018-06-01T01:27:12.564Z,84.90
2018-06-01T01:28:16.894Z,83.90
2018-06-01T01:29:21.191Z,84.10
2018-06-01T01:30:25.512Z,84.80
2018-06-01T01:31:29.897Z,84.10
2018-06-01T01:32:34.407Z,84.20
2018-06-01T01:33:38.451Z,84.20
2018-06-01T01:34:42.515Z,84.20
2018-06-01T01:35:46.608Z,84.10
2018-06-01T01:36:50.663Z,84.10
2018-06-01T01:37:54.736Z,84.10
2018-06-01T01:38:58.847Z,84.10
2018-06-01T01:40:02.990Z,84.20
2018-06-01T01:41:07.308Z,84.30
2018-06-01T01:42:12.604Z,84.30
2018-06-01T01:43:16.924Z,84.30
2018-06-01T01:44:21.303Z,84.40
2018-06-01T01:45:25.587Z,84.40
2018-06-01T01:46:30.022Z,84.30
2018-06-01T01:47:34.336Z,84.30
2018-06-01T01:48:38.611Z,84.30
2018-06-01T01:49:43.112Z,84.30
2018-06-01T01:50:48.132Z,84.40
2018-06-01T01:51:52.211Z,84.40
2018-06-01T01:52:56.318Z,84.60
2018-06-01T01:54:00.464Z,84.70
2018-06-01T01:55:04.553Z,84.80
2018-06-01T01:56:08.644Z,84.80
2018-06-01T01:57:12.744Z,84.80
2018-06-01T01:58:17.575Z,84.60
2018-06-01T01:59:21.964Z,84.60
2018-06-01T02:00:27.124Z,84.60
2018-06-01T02:01:31.418Z,84.60
2018-06-01T02:02:35.724Z,84.60
2018-06-01T02:03:40.033Z,84.60
2018-06-01T02:04:44.323Z,83.60
2018-06-01T02:05:49.446Z,84.60
2018-06-01T02:06:54.562Z,84.60
2018-06-01T02:07:58.957Z,84.70
2018-06-01T02:09:03.440Z,84.70
2018-06-01T02:10:07.754Z,84.90
2018-06-01T02:11:12.055Z,85.10
2018-06-01T02:12:16.383Z,85.30
2018-06-01T02:13:20.698Z,85.30
2018-06-01T02:14:25.013Z,85.50
2018-06-01T02:15:29.495Z,85.70
2018-06-01T02:16:33.838Z,85.60
2018-06-01T02:17:38.212Z,85.60
2018-06-01T02:18:42.831Z,85.80
2018-06-01T02:19:47.124Z,85.70
2018-06-01T02:20:51.425Z,85.70
2018-06-01T02:21:55.744Z,85.60
2018-06-01T02:23:00.070Z,86.30
2018-06-01T02:24:04.371Z,85.60
2018-06-01T02:25:08.964Z,86.30
2018-06-01T02:26:13.651Z,85.60
2018-06-01T02:27:18.792Z,85.70
2018-06-01T02:28:23.134Z,85.70
2018-06-01T02:29:27.440Z,85.60
2018-06-01T02:30:31.762Z,85.60
2018-06-01T02:31:36.084Z,85.60
2018-06-01T02:32:40.648Z,85.70
2018-06-01T02:33:44.954Z,86.70
2018-06-01T02:36:45.943Z,86.80
2018-06-01T02:37:51.179Z,85.60
2018-06-01T02:38:55.491Z,85.60
2018-06-01T02:40:00.627Z,85.60
2018-06-01T02:41:05.780Z,85.60
2018-06-01T02:42:10.108Z,85.70
2018-06-01T02:43:14.450Z,86.00
2018-06-01T02:44:19.044Z,85.70
2018-06-01T02:45:23.358Z,86.40
2018-06-01T02:46:27.467Z,85.80
2018-06-01T02:47:31.549Z,86.00
2018-06-01T02:48:35.626Z,85.90
2018-06-01T02:49:40.063Z,86.00
2018-06-01T02:50:44.119Z,86.20
2018-06-01T02:51:48.970Z,86.40
2018-06-01T02:52:53.400Z,86.40
2018-06-01T02:53:57.499Z,86.30
2018-06-01T02:55:01.581Z,86.20
2018-06-01T02:56:05.719Z,86.20
2018-06-01T02:57:09.819Z,86.10
2018-06-01T02:58:13.914Z,85.90
2018-06-01T02:59:18.025Z,85.90
2018-06-01T03:00:22.312Z,87.30
2018-06-01T03:01:26.447Z,85.90
2018-06-01T03:02:30.533Z,85.70
2018-06-01T03:03:35.658Z,85.50
2018-06-01T03:04:40.011Z,85.50
2018-06-01T03:05:44.107Z,85.40
2018-06-01T03:06:57.870Z,85.90
2018-06-01T03:08:01.943Z,85.30
2018-06-01T03:09:06.522Z,85.10
2018-06-01T03:10:10.622Z,85.10
2018-06-01T03:11:14.688Z,85.10
2018-06-01T03:12:18.992Z,85.00
2018-06-01T03:13:23.328Z,85.00
2018-06-01T03:14:28.055Z,85.00
2018-06-01T03:15:32.444Z,84.90
2018-06-01T03:16:36.767Z,85.10
2018-06-01T03:17:41.103Z,84.90
2018-06-01T03:18:46.219Z,84.70
2018-06-01T03:19:50.677Z,84.90
2018-06-01T03:20:56.230Z,85.00
2018-06-01T03:22:00.706Z,84.90
2018-06-01T03:23:04.790Z,84.80
2018-06-01T03:24:09.675Z,84.90
2018-06-01T03:25:13.711Z,84.90
2018-06-01T03:26:18.556Z,85.10
2018-06-01T03:27:22.748Z,85.10
2018-06-01T03:28:27.604Z,85.30
2018-06-01T03:29:31.711Z,85.20
2018-06-01T03:30:36.028Z,85.10
2018-06-01T03:31:40.108Z,85.20
2018-06-01T03:32:44.271Z,85.40
2018-06-01T03:33:49.115Z,86.10
2018-06-01T03:34:53.202Z,86.10
2018-06-01T03:35:58.263Z,85.70
2018-06-01T03:37:02.611Z,85.70
2018-06-01T03:38:08.807Z,86.60
2018-06-01T03:39:13.453Z,86.60
2018-06-01T03:40:17.813Z,87.10
2018-06-01T03:41:22.215Z,85.90
2018-06-01T03:42:27.363Z,86.90
2018-06-01T03:43:31.678Z,86.90
2018-06-01T03:44:36.015Z,87.00
2018-06-01T03:45:40.337Z,88.80
2018-06-01T03:46:45.822Z,89.00
2018-06-01T03:47:50.164Z,89.20
2018-06-01T03:48:54.507Z,90.10
2018-06-01T03:49:58.819Z,88.40
2018-06-01T03:51:03.911Z,89.40
2018-06-01T03:52:09.037Z,88.40
2018-06-01T03:53:13.372Z,88.50
2018-06-01T03:54:17.678Z,89.10
2018-06-01T03:55:22.869Z,89.50
2018-06-01T03:56:27.176Z,89.50
2018-06-01T03:57:31.283Z,90.10
2018-06-01T03:58:35.350Z,89.30
2018-06-01T03:59:39.435Z,89.30
2018-06-01T04:00:44.379Z,90.40
2018-06-01T04:01:48.628Z,90.30
2018-06-01T04:02:53.021Z,90.60
2018-06-01T04:03:57.140Z,90.80
2018-06-01T04:05:01.369Z,91.10
2018-06-01T04:06:06.275Z,91.20
2018-06-01T04:07:10.434Z,91.20
2018-06-01T04:08:14.655Z,90.10
2018-06-01T04:09:19.195Z,90.30
2018-06-01T04:10:23.398Z,90.30
2018-06-01T04:11:27.615Z,89.90
2018-06-01T04:12:31.823Z,90.40
2018-06-01T04:13:35.866Z,90.30
2018-06-01T04:14:40.255Z,89.90
2018-06-01T04:15:45.296Z,88.30
2018-06-01T04:16:49.624Z,88.30
2018-06-01T04:17:56.757Z,88.30
2018-06-01T04:19:01.845Z,88.20
2018-06-01T04:20:06.931Z,89.40
2018-06-01T04:21:11.333Z,89.30
2018-06-01T04:22:16.496Z,91.20
2018-06-01T04:23:21.127Z,91.20
2018-06-01T04:24:25.461Z,90.70
2018-06-01T04:25:30.602Z,91.00
2018-06-01T04:26:34.944Z,90.90
2018-06-01T04:27:39.616Z,90.90
2018-06-01T04:28:44.659Z,90.50
2018-06-01T04:29:49.019Z,90.50
2018-06-01T04:30:53.344Z,91.30
2018-06-01T04:31:57.643Z,91.30
2018-06-01T04:33:02.763Z,90.90
2018-06-01T04:34:07.079Z,90.90
2018-06-01T04:35:11.472Z,91.20
2018-06-01T04:36:15.937Z,91.00
2018-06-01T04:37:20.303Z,91.00
2018-06-01T04:38:24.728Z,91.30
2018-06-01T04:39:29.792Z,91.40
2018-06-01T04:40:34.159Z,91.60
2018-06-01T04:41:40.489Z,91.60
2018-06-01T04:42:44.843Z,91.70
2018-06-01T04:43:49.185Z,92.00
2018-06-01T04:44:53.550Z,91.80
2018-06-01T04:45:57.879Z,91.60
2018-06-01T04:47:02.240Z,91.50
2018-06-01T04:48:06.596Z,91.30
2018-06-01T04:49:10.947Z,92.30
2018-06-01T04:50:16.055Z,91.80
2018-06-01T04:51:20.437Z,91.90
2018-06-01T04:52:24.855Z,91.90
2018-06-01T04:53:29.055Z,92.10
2018-06-01T04:54:33.191Z,91.90
2018-06-01T04:55:37.467Z,92.10
2018-06-01T04:56:41.614Z,92.30
2018-06-01T04:57:45.724Z,92.20
2018-06-01T04:58:49.819Z,92.30
2018-06-01T04:59:53.898Z,92.30
2018-06-01T05:00:58.027Z,92.40
2018-06-01T05:02:02.430Z,92.50
2018-06-01T05:03:06.765Z,92.50
2018-06-01T05:04:11.828Z,92.30
2018-06-01T05:05:16.291Z,92.30
2018-06-01T05:06:20.655Z,92.50
2018-06-01T05:07:24.991Z,92.80
2018-06-01T05:08:29.331Z,92.60
2018-06-01T05:09:34.415Z,92.20
2018-06-01T05:10:38.778Z,92.60
2018-06-01T05:11:43.144Z,92.40
2018-06-01T05:12:47.590Z,92.30
2018-06-01T05:13:53.204Z,92.20
2018-06-01T05:14:57.694Z,92.60
2018-06-01T05:16:02.019Z,92.20
2018-06-01T05:17:06.364Z,92.50
2018-06-01T05:18:10.711Z,92.50
2018-06-01T05:19:15.031Z,92.40
2018-06-01T05:20:19.481Z,92.60
2018-06-01T05:21:24.337Z,92.10
2018-06-01T05:22:28.435Z,92.10
2018-06-01T05:23:32.515Z,92.20
2018-06-01T05:24:36.642Z,92.10
2018-06-01T05:25:40.765Z,92.70
2018-06-01T05:26:45.725Z,93.00
2018-06-01T05:27:50.590Z,92.60
2018-06-01T05:28:54.800Z,92.60
2018-06-01T05:29:58.916Z,92.50
2018-06-01T05:31:03.321Z,92.30
2018-06-01T05:32:07.737Z,92.10
2018-06-01T05:33:12.055Z,92.40
2018-06-01T05:34:16.470Z,92.40
2018-06-01T05:35:20.867Z,92.30
2018-06-01T05:36:25.203Z,92.50
2018-06-01T05:37:30.292Z,92.40
2018-06-01T05:38:34.639Z,92.40
2018-06-01T05:39:39.556Z,92.40
2018-06-01T05:40:44.452Z,92.10
2018-06-01T05:41:48.562Z,92.10
2018-06-01T05:42:52.781Z,91.80
2018-06-01T05:43:56.856Z,92.00
2018-06-01T05:45:01.212Z,92.40
2018-06-01T05:46:06.104Z,92.40
2018-06-01T05:47:10.284Z,92.40
2018-06-01T05:48:14.454Z,92.10
2018-06-01T05:49:18.570Z,92.40
2018-06-01T05:50:22.771Z,92.40
2018-06-01T05:51:26.941Z,92.30
2018-06-01T05:52:31.964Z,92.80
2018-06-01T05:53:37.152Z,92.40
2018-06-01T05:54:41.268Z,92.40
2018-06-01T05:55:45.466Z,92.50
2018-06-01T05:56:49.637Z,92.80
2018-06-01T05:57:53.794Z,92.50
2018-06-01T05:58:57.950Z,92.20
2018-06-01T06:00:02.658Z,92.50
2018-06-01T06:01:07.134Z,92.30
2018-06-01T06:02:12.230Z,92.70
2018-06-01T06:03:16.593Z,92.70
2018-06-01T06:04:21.127Z,92.60
2018-06-01T06:05:25.488Z,92.60
2018-06-01T06:06:30.871Z,92.90
2018-06-01T06:07:35.285Z,92.90
2018-06-01T06:08:39.730Z,92.60
2018-06-01T06:09:43.978Z,92.70
2018-06-01T06:10:48.199Z,93.00
2018-06-01T06:11:52.330Z,92.90
2018-06-01T06:12:56.749Z,92.80
2018-06-01T06:14:00.831Z,92.70
2018-06-01T06:15:05.054Z,93.00
2018-06-01T06:16:09.171Z,92.80
2018-06-01T06:17:14.485Z,92.90
2018-06-01T06:18:18.827Z,92.90
2018-06-01T06:19:24.236Z,92.80
2018-06-01T06:20:28.581Z,92.80
2018-06-01T06:21:32.755Z,93.20
2018-06-01T06:22:36.911Z,92.90
2018-06-01T06:23:41.107Z,93.00
2018-06-01T06:24:45.188Z,93.00
2018-06-01T06:25:50.320Z,93.20
2018-06-01T06:26:54.419Z,93.20
2018-06-01T06:27:58.525Z,92.80
2018-06-01T06:29:02.757Z,92.70
2018-06-01T06:30:06.879Z,93.10
2018-06-01T06:31:11.176Z,93.30
2018-06-01T06:32:15.322Z,93.50
2018-06-01T06:33:20.465Z,93.10
2018-06-01T06:34:24.682Z,93.10
2018-06-01T06:35:28.859Z,92.90
2018-06-01T06:36:33.851Z,92.70
2018-06-01T06:37:38.024Z,92.70
2018-06-01T06:38:42.110Z,92.80
2018-06-01T06:39:46.289Z,93.50
2018-06-01T06:40:50.429Z,93.10
2018-06-01T06:41:54.550Z,92.60
2018-06-01T06:42:58.650Z,92.00
2018-06-01T06:44:02.730Z,92.70
2018-06-01T06:45:07.891Z,93.40
2018-06-01T06:46:12.248Z,93.10
2018-06-01T06:47:16.655Z,92.80
2018-06-01T06:48:21.758Z,92.60
2018-06-01T06:49:26.210Z,92.60
2018-06-01T06:50:30.667Z,92.50
2018-06-01T06:51:35.056Z,93.00
2018-06-01T06:52:39.431Z,92.70
2018-06-01T06:53:43.755Z,92.20
2018-06-01T06:54:48.868Z,92.10
2018-06-01T06:55:53.212Z,92.10
2018-06-01T06:56:57.531Z,92.50
2018-06-01T06:58:01.938Z,91.90
2018-06-01T06:59:06.333Z,91.70
2018-06-01T07:00:11.364Z,91.30
2018-06-01T07:01:15.492Z,91.30
2018-06-01T07:02:19.623Z,91.90
2018-06-01T07:03:24.172Z,91.90
2018-06-01T07:04:28.380Z,91.90
2018-06-01T07:05:32.511Z,91.40
2018-06-01T07:06:36.651Z,91.20
2018-06-01T07:07:41.500Z,90.80
2018-06-01T07:08:45.923Z,90.80
2018-06-01T07:09:50.109Z,91.10
2018-06-01T07:10:54.223Z,91.50
2018-06-01T07:11:58.327Z,91.40
2018-06-01T07:13:02.632Z,91.60
2018-06-01T07:14:06.815Z,91.70
2018-06-01T07:15:10.960Z,91.80
2018-06-01T07:16:15.162Z,91.40
2018-06-01T07:17:19.335Z,91.30
2018-06-01T07:18:23.610Z,91.70
2018-06-01T07:19:28.656Z,91.60
2018-06-01T07:20:33.055Z,91.70
2018-06-01T07:21:38.499Z,91.60
2018-06-01T07:22:42.905Z,91.60
2018-06-01T07:23:47.242Z,91.00
2018-06-01T07:24:51.562Z,91.00
2018-06-01T07:25:56.795Z,92.00
2018-06-01T07:27:01.215Z,92.00
2018-06-01T07:28:05.846Z,91.90
2018-06-01T07:29:10.965Z,91.90
2018-06-01T07:30:16.111Z,92.30
2018-06-01T07:31:21.283Z,92.50
2018-06-01T07:32:25.763Z,92.10
2018-06-01T07:33:30.868Z,91.60
2018-06-01T07:34:36.260Z,91.70
2018-06-01T07:35:40.637Z,91.70
2018-06-01T07:36:44.983Z,92.00
2018-06-01T07:37:49.467Z,91.80
2018-06-01T07:38:53.805Z,92.80
2018-06-01T07:39:58.171Z,91.70
2018-06-01T07:41:02.755Z,91.30
2018-06-01T07:42:06.847Z,91.10
2018-06-01T07:43:10.935Z,91.30
2018-06-01T07:44:15.031Z,91.00
2018-06-01T07:45:19.173Z,91.30
2018-06-01T07:46:24.239Z,91.80
2018-06-01T07:47:28.699Z,91.00
2018-06-01T07:48:32.819Z,91.70
2018-06-01T07:49:37.718Z,91.70
2018-06-01T07:50:42.887Z,91.50
2018-06-01T07:51:47.203Z,91.40
2018-06-01T07:52:51.519Z,91.30
2018-06-01T07:53:55.887Z,91.10
2018-06-01T07:55:00.813Z,91.40
2018-06-01T07:56:05.696Z,91.20
2018-06-01T07:57:09.831Z,91.20
2018-06-01T07:58:14.650Z,91.40
2018-06-01T07:59:19.467Z,91.30
2018-06-01T08:00:24.734Z,91.30
2018-06-01T08:01:29.068Z,91.30
2018-06-01T08:02:33.436Z,91.00
2018-06-01T08:03:37.813Z,91.00
2018-06-01T08:04:42.136Z,90.90
2018-06-01T08:05:47.575Z,91.30
2018-06-01T08:06:52.655Z,91.20
2018-06-01T08:07:57.776Z,91.00
2018-06-01T08:09:02.176Z,90.70
2018-06-01T08:10:06.629Z,91.50
2018-06-01T08:11:11.825Z,91.90
2018-06-01T08:12:16.155Z,91.90
2018-06-01T08:13:20.524Z,91.90
2018-06-01T08:14:24.882Z,92.10
2018-06-01T08:15:29.981Z,91.30
2018-06-01T08:16:34.327Z,91.30
2018-06-01T08:17:39.682Z,91.60
2018-06-01T08:18:44.046Z,91.60
2018-06-01T08:19:48.369Z,91.40
2018-06-01T08:20:52.522Z,91.00
2018-06-01T08:21:56.616Z,90.60
2018-06-01T08:23:00.691Z,90.90
2018-06-01T08:24:05.882Z,91.70
2018-06-01T08:25:09.975Z,91.70
2018-06-01T08:26:14.092Z,92.70
2018-06-01T08:27:18.307Z,92.30
2018-06-01T08:28:22.411Z,92.30
2018-06-01T08:29:27.415Z,91.60
2018-06-01T08:30:31.635Z,91.60
2018-06-01T08:31:35.743Z,91.10
2018-06-01T08:32:40.629Z,91.90
2018-06-01T08:33:44.764Z,91.90
2018-06-01T08:34:49.663Z,92.10
2018-06-01T08:35:53.737Z,92.00
2018-06-01T08:36:57.850Z,91.90
2018-06-01T08:38:01.991Z,91.90
2018-06-01T08:39:07.152Z,91.50
2018-06-01T08:40:11.259Z,91.70
2018-06-01T08:41:15.335Z,91.60
2018-06-01T08:42:20.571Z,91.70
2018-06-01T08:43:24.933Z,91.70
2018-06-01T08:44:29.011Z,91.50
2018-06-01T08:45:33.297Z,91.70
2018-06-01T08:46:38.330Z,91.40
2018-06-01T08:47:42.504Z,91.40
2018-06-01T08:48:46.718Z,91.20
2018-06-01T08:49:51.631Z,91.10
2018-06-01T08:50:55.893Z,91.10
2018-06-01T08:52:00.000Z,91.30
2018-06-01T08:53:04.143Z,91.20
2018-06-01T08:54:08.287Z,91.00
2018-06-01T08:55:12.410Z,91.10
2018-06-01T08:56:16.800Z,91.10
2018-06-01T08:57:20.931Z,91.30
2018-06-01T08:58:25.107Z,91.10
2018-06-01T08:59:29.460Z,91.00
2018-06-01T09:00:33.862Z,91.10
2018-06-01T09:01:38.303Z,91.10
2018-06-01T09:02:43.402Z,91.20
2018-06-01T09:03:47.735Z,91.20
2018-06-01T09:04:52.854Z,90.90
2018-06-01T09:05:57.226Z,90.90
2018-06-01T09:07:01.555Z,91.10
2018-06-01T09:08:05.875Z,91.00
2018-06-01T09:09:10.985Z,91.00
2018-06-01T09:10:16.180Z,91.00
2018-06-01T09:11:21.274Z,91.00
2018-06-01T09:12:26.394Z,91.50
2018-06-01T09:13:31.541Z,91.00
2018-06-01T09:14:35.909Z,90.10
2018-06-01T09:15:40.343Z,91.20
2018-06-01T09:16:44.807Z,91.50
2018-06-01T09:17:49.225Z,91.00
2018-06-01T09:18:53.578Z,91.30
2018-06-01T09:19:58.224Z,91.10
2018-06-01T09:21:02.555Z,91.20
2018-06-01T09:22:06.949Z,91.10
2018-06-01T09:23:11.306Z,91.30
2018-06-01T09:24:16.479Z,91.40
2018-06-01T09:25:20.912Z,91.40
2018-06-01T09:26:25.555Z,91.50
2018-06-01T09:27:30.862Z,92.20
2018-06-01T09:28:35.214Z,91.90
2018-06-01T09:29:39.494Z,92.10
2018-06-01T09:30:43.588Z,91.90
2018-06-01T09:31:47.709Z,92.30
2018-06-01T09:32:52.925Z,91.90
2018-06-01T09:33:57.020Z,91.90
2018-06-01T09:35:01.130Z,92.20
2018-06-01T09:36:05.241Z,92.50
2018-06-01T09:37:09.467Z,92.30
2018-06-01T09:38:14.344Z,92.20
2018-06-01T09:39:19.031Z,92.20
2018-06-01T09:40:23.406Z,92.20
2018-06-01T09:41:27.803Z,91.60
2018-06-01T09:42:33.103Z,92.10
2018-06-01T09:43:37.491Z,92.10
2018-06-01T09:44:41.867Z,92.30
2018-06-01T09:45:47.294Z,92.70
2018-06-01T09:46:52.407Z,92.50
2018-06-01T09:47:57.524Z,92.50
2018-06-01T09:49:02.449Z,92.50
2018-06-01T09:50:06.564Z,92.50
2018-06-01T09:51:11.436Z,92.20
2018-06-01T09:52:16.593Z,92.30
2018-06-01T09:53:20.707Z,92.30
2018-06-01T09:54:24.842Z,92.10
2018-06-01T09:55:29.216Z,91.80
2018-06-01T09:56:33.380Z,91.60
2018-06-01T09:57:37.498Z,92.20
2018-06-01T09:58:41.943Z,91.70
2018-06-01T09:59:46.899Z,91.90
2018-06-01T10:00:55.196Z,91.90
2018-06-01T10:01:59.277Z,91.50
2018-06-01T10:03:04.103Z,92.00
2018-06-01T10:04:09.292Z,91.70
2018-06-01T10:05:13.614Z,91.70
2018-06-01T10:06:17.929Z,92.20
2018-06-01T10:07:23.017Z,91.80
2018-06-01T10:08:27.378Z,91.80
2018-06-01T10:09:32.511Z,91.50
2018-06-01T10:10:37.166Z,91.50
2018-06-01T10:11:41.512Z,91.70
2018-06-01T10:12:45.867Z,91.50
2018-06-01T10:13:50.210Z,91.60
2018-06-01T10:14:54.593Z,91.90
2018-06-01T10:15:58.987Z,92.50
2018-06-01T10:17:03.366Z,91.40
2018-06-01T10:18:08.242Z,91.80
2018-06-01T10:19:12.417Z,91.20
2018-06-01T10:20:16.588Z,92.00
2018-06-01T10:21:21.483Z,91.80
2018-06-01T10:22:25.540Z,91.80
2018-06-01T10:23:29.662Z,91.90
2018-06-01T10:24:33.760Z,92.00
2018-06-01T10:25:37.930Z,92.10
2018-06-01T10:26:42.802Z,92.00
2018-06-01T10:27:47.177Z,92.00
2018-06-01T10:28:51.577Z,92.40
2018-06-01T10:29:55.999Z,92.40
2018-06-01T10:31:00.412Z,92.20
2018-06-01T10:32:05.561Z,92.20
2018-06-01T10:33:09.939Z,92.30
2018-06-01T10:34:14.388Z,92.40
2018-06-01T10:35:18.759Z,92.30
2018-06-01T10:36:23.075Z,92.30
2018-06-01T10:37:27.471Z,92.30
2018-06-01T10:38:31.835Z,91.50
2018-06-01T10:39:36.250Z,92.00
2018-06-01T10:40:40.607Z,91.70
2018-06-01T10:41:44.968Z,92.00
2018-06-01T10:42:49.303Z,92.20
2018-06-01T10:43:54.453Z,91.70
2018-06-01T10:44:58.922Z,91.70
2018-06-01T10:46:03.947Z,92.20
2018-06-01T10:47:08.096Z,92.20
2018-06-01T10:48:12.223Z,92.50
2018-06-01T10:49:16.477Z,92.50
2018-06-01T10:50:21.404Z,92.30
2018-06-01T10:51:26.560Z,92.50
2018-06-01T10:52:30.963Z,92.50
2018-06-01T10:53:36.096Z,93.00
2018-06-01T10:54:40.690Z,93.00
2018-06-01T10:55:45.060Z,93.10
2018-06-01T10:56:49.385Z,92.90
2018-06-01T10:57:54.528Z,92.60
2018-06-01T10:58:58.847Z,92.50
2018-06-01T11:00:03.495Z,92.90
2018-06-01T11:01:07.845Z,92.60
2018-06-01T11:02:12.975Z,92.30
2018-06-01T11:03:18.057Z,92.70
2018-06-01T11:04:22.367Z,92.70
2018-06-01T11:05:27.000Z,92.80
2018-06-01T11:06:31.353Z,92.70
2018-06-01T11:07:35.687Z,92.40
2018-06-01T11:08:40.028Z,92.50
2018-06-01T11:09:44.373Z,92.60
2018-06-01T11:10:48.733Z,92.70
2018-06-01T11:11:53.098Z,92.60
2018-06-01T11:12:57.427Z,92.30
2018-06-01T11:14:01.804Z,92.40
2018-06-01T11:15:06.193Z,92.70
2018-06-01T11:16:10.587Z,93.00
2018-06-01T11:17:14.895Z,93.30
2018-06-01T11:18:19.539Z,92.50
2018-06-01T11:19:24.702Z,92.90
2018-06-01T11:20:29.121Z,92.80
2018-06-01T11:21:33.546Z,92.90
2018-06-01T11:22:37.987Z,93.00
2018-06-01T11:23:42.949Z,93.50
2018-06-01T11:24:47.490Z,93.50
2018-06-01T11:25:51.564Z,93.60
2018-06-01T11:26:55.683Z,93.90
2018-06-01T11:27:59.829Z,93.90
2018-06-01T11:29:04.724Z,93.80
2018-06-01T11:30:09.087Z,93.70
2018-06-01T11:31:13.467Z,93.60
2018-06-01T11:32:18.341Z,94.00
2018-06-01T11:33:22.479Z,94.00
2018-06-01T11:34:27.329Z,94.30
2018-06-01T11:35:31.583Z,94.30
2018-06-01T11:36:35.819Z,94.10
2018-06-01T11:37:40.929Z,94.20
2018-06-01T11:38:45.028Z,94.20
2018-06-01T11:39:49.144Z,94.40
2018-06-01T11:40:53.494Z,93.70
2018-06-01T11:41:57.601Z,93.80
2018-06-01T11:43:01.718Z,93.90
2018-06-01T11:44:06.145Z,94.20
2018-06-01T11:45:10.239Z,94.20
2018-06-01T11:46:14.333Z,94.00
2018-06-01T11:47:18.472Z,94.30
2018-06-01T11:48:22.651Z,94.10
2018-06-01T11:49:26.845Z,94.60
2018-06-01T11:50:32.197Z,94.60
2018-06-01T11:51:36.360Z,94.50
2018-06-01T11:52:40.490Z,94.30
2018-06-01T11:53:44.627Z,94.40
2018-06-01T11:54:48.787Z,95.00
2018-06-01T11:55:52.872Z,94.10
2018-06-01T11:56:56.987Z,94.30
2018-06-01T11:58:01.090Z,94.70
2018-06-01T11:59:05.296Z,94.50
2018-06-01T12:00:09.398Z,94.70
2018-06-01T12:01:13.512Z,94.80
2018-06-01T12:02:17.719Z,94.90
2018-06-01T12:03:22.129Z,94.80
2018-06-01T12:04:26.514Z,94.90
2018-06-01T12:05:30.835Z,94.90
2018-06-01T12:06:35.259Z,94.80
2018-06-01T12:07:39.606Z,94.40
2018-06-01T12:08:44.798Z,94.80
2018-06-01T12:09:49.363Z,94.80
2018-06-01T12:10:53.766Z,94.60
2018-06-01T12:11:59.157Z,94.50
2018-06-01T12:13:03.500Z,93.90
2018-06-01T12:14:08.092Z,94.70
2018-06-01T12:15:12.763Z,94.70
2018-06-01T12:16:17.097Z,94.90
2018-06-01T12:17:21.600Z,95.00
2018-06-01T12:18:26.019Z,94.50
2018-06-01T12:19:30.368Z,94.60
2018-06-01T12:20:35.530Z,94.20
2018-06-01T12:21:39.834Z,94.20
2018-06-01T12:22:44.287Z,94.30
2018-06-01T12:23:48.845Z,94.30
2018-06-01T12:24:53.175Z,94.50
2018-06-01T12:25:57.506Z,94.00
2018-06-01T12:27:01.587Z,94.20
2018-06-01T12:28:05.947Z,94.20
2018-06-01T12:29:10.802Z,94.50
2018-06-01T12:30:14.917Z,94.50
2018-06-01T12:31:19.044Z,94.40
2018-06-01T12:32:23.116Z,94.50
2018-06-01T12:33:27.257Z,94.40
2018-06-01T12:34:31.676Z,94.30
2018-06-01T12:35:36.989Z,94.40
2018-06-01T12:36:41.293Z,94.40
2018-06-01T12:37:45.655Z,94.60
2018-06-01T12:38:49.982Z,94.30
2018-06-01T12:39:54.291Z,94.30
2018-06-01T12:40:59.751Z,94.50
2018-06-01T12:42:04.071Z,94.50
2018-06-01T12:43:08.511Z,94.30
2018-06-01T12:44:13.702Z,94.00
2018-06-01T12:45:18.402Z,94.30
2018-06-01T12:46:23.547Z,94.80
2018-06-01T12:47:28.954Z,94.80
2018-06-01T12:48:33.865Z,95.20
2018-06-01T12:49:39.490Z,94.60
2018-06-01T12:50:44.181Z,94.60
2018-06-01T12:51:49.313Z,94.50
2018-06-01T12:52:54.468Z,94.60
2018-06-01T12:53:58.802Z,94.60
2018-06-01T12:55:02.900Z,94.50
2018-06-01T12:56:06.967Z,94.50
2018-06-01T12:57:11.054Z,94.70
2018-06-01T12:58:15.952Z,94.70
2018-06-01T12:59:20.068Z,94.70
2018-06-01T13:00:24.399Z,94.60
2018-06-01T13:01:28.486Z,95.10
2018-06-01T13:02:33.612Z,95.30
2018-06-01T13:03:38.660Z,95.50
2018-06-01T13:04:42.947Z,95.50
2018-06-01T13:05:48.023Z,95.70
2018-06-01T13:06:52.325Z,95.70
2018-06-01T13:07:56.648Z,95.90
2018-06-01T13:09:00.953Z,96.00
2018-06-01T13:10:06.080Z,95.70
2018-06-01T13:11:10.227Z,95.60
2018-06-01T13:12:15.091Z,95.50
2018-06-01T13:13:19.145Z,95.50
2018-06-01T13:14:23.975Z,95.60
2018-06-01T13:15:28.055Z,95.60
2018-06-01T13:16:32.907Z,95.10
2018-06-01T13:17:36.952Z,95.00
2018-06-01T13:18:45.142Z,95.60
2018-06-01T13:19:49.504Z,94.80
2018-06-01T13:20:53.630Z,95.10
2018-06-01T13:21:58.465Z,94.90
2018-06-01T13:23:04.067Z,95.00
2018-06-01T13:24:08.378Z,95.00
2018-06-01T13:25:12.871Z,95.10
2018-06-01T13:26:18.030Z,95.00
2018-06-01T13:27:22.572Z,95.00
2018-06-01T13:28:26.984Z,94.80
2018-06-01T13:29:31.323Z,95.00
2018-06-01T13:30:36.437Z,95.00
2018-06-01T13:31:40.746Z,95.00
2018-06-01T13:32:44.861Z,94.90
2018-06-01T13:33:49.880Z,95.20
2018-06-01T13:34:54.070Z,94.80
2018-06-01T13:35:58.455Z,95.10
2018-06-01T13:37:02.552Z,95.20
2018-06-01T13:38:06.721Z,95.40
2018-06-01T13:39:10.847Z,95.40
2018-06-01T13:40:14.945Z,94.70
2018-06-01T13:41:19.113Z,95.80
2018-06-01T13:42:24.369Z,94.90
2018-06-01T13:43:28.845Z,94.90
2018-06-01T13:44:32.939Z,94.60
2018-06-01T13:45:37.008Z,94.90
2018-06-01T13:46:41.152Z,94.90
2018-06-01T13:47:45.476Z,94.50
2018-06-01T13:48:50.007Z,94.90
2018-06-01T13:49:54.372Z,94.70
2018-06-01T13:50:58.823Z,94.60
2018-06-01T13:52:03.184Z,94.40